Time;durP1;ratioP1;P1;durP2;ratioP2;P2;SDS_P1;SDS_P2;PMS_P1;PMS_P2;Temp;Humidity;BMP_temperature;BMP_pressure;BME280_temperature;BME280_humidity;BME280_pressure;Samples;Min_cycle;Max_cycle;Signal;HPM_P1;HPM_P2
2021/03/26 00:01:24;;;;;;;19.42;12.68;;;5.00;50.90;;;;;;5005167;28;812019;-77
2021/03/26 00:03:54;;;;;;;26.50;13.13;;;5.10;51.00;;;;;;5034453;28;20040;-77
2021/03/26 00:06:24;;;;;;;21.67;12.43;;;5.00;50.90;;;;;;5034249;28;20047;-77
2021/03/26 00:08:51;;;;;;;25.48;13.55;;;5.00;51.00;;;;;;5034515;28;20034;-77
2021/03/26 00:11:18;;;;;;;23.88;13.27;;;5.10;51.00;;;;;;5033859;28;20083;-77
2021/03/26 00:13:45;;;;;;;27.33;13.75;;;5.10;51.00;;;;;;5034507;28;20452;-77
2021/03/26 00:16:11;;;;;;;26.95;13.15;;;5.10;51.00;;;;;;5034062;28;20025;-76
2021/03/26 00:18:38;;;;;;;24.40;13.25;;;5.10;51.00;;;;;;5033896;28;20036;-78
2021/03/26 00:21:04;;;;;;;30.33;13.85;;;5.10;51.00;;;;;;5034258;28;20030;-77
2021/03/26 00:23:30;;;;;;;28.13;12.80;;;5.10;51.00;;;;;;5034028;28;20456;-77
2021/03/26 00:25:56;;;;;;;27.42;13.45;;;5.00;50.90;;;;;;5033316;28;20032;-77
2021/03/26 00:28:21;;;;;;;29.65;14.77;;;5.00;50.90;;;;;;5033652;28;20128;-77
2021/03/26 00:30:47;;;;;;;25.45;14.13;;;5.00;51.00;;;;;;5033724;28;20029;-77
2021/03/26 00:33:13;;;;;;;25.45;13.45;;;5.00;51.10;;;;;;5034193;28;20168;-77
2021/03/26 00:35:39;;;;;;;28.02;13.32;;;5.00;51.70;;;;;;5033688;28;20040;-77
2021/03/26 00:38:05;;;;;;;28.48;13.35;;;5.00;51.10;;;;;;5032338;28;20037;-77
2021/03/26 00:40:31;;;;;;;25.90;13.23;;;5.00;51.10;;;;;;5033383;28;20108;-77
2021/03/26 00:42:56;;;;;;;27.58;13.73;;;4.90;51.10;;;;;;5033253;28;20164;-77
2021/03/26 00:45:32;;;;;;;29.48;14.13;;;4.90;51.10;;;;;;5033530;28;20030;-77
2021/03/26 00:47:58;;;;;;;26.10;14.30;;;4.90;51.10;;;;;;5033338;28;20022;-77
2021/03/26 00:50:29;;;;;;;27.40;14.20;;;4.90;51.10;;;;;;5032355;28;20357;-77
2021/03/26 00:52:58;;;;;;;26.17;13.63;;;4.90;51.10;;;;;;5032278;28;20026;-77
2021/03/26 00:55:23;;;;;;;25.58;14.02;;;4.90;51.10;;;;;;5031778;28;20022;-77
2021/03/26 00:57:49;;;;;;;24.98;13.73;;;4.90;51.10;;;;;;5033354;28;20365;-77
2021/03/26 01:00:21;;;;;;;29.80;14.23;;;4.90;51.10;;;;;;5034387;28;20108;-76
2021/03/26 01:02:47;;;;;;;27.98;14.00;;;4.90;51.10;;;;;;5033217;28;20148;-77
2021/03/26 01:05:17;;;;;;;27.30;13.48;;;4.90;51.10;;;;;;5034757;28;20022;-77
2021/03/26 01:07:46;;;;;;;24.90;13.40;;;4.80;51.00;;;;;;5033294;28;20033;-78
2021/03/26 01:10:13;;;;;;;29.80;15.13;;;4.90;51.00;;;;;;5034738;28;20033;-77
2021/03/26 01:12:39;;;;;;;28.33;14.38;;;4.80;50.90;;;;;;5034946;28;20116;-77
2021/03/26 01:15:09;;;;;;;23.05;13.45;;;4.80;50.90;;;;;;5035007;28;20060;-76
2021/03/26 01:17:35;;;;;;;26.45;13.75;;;4.80;50.90;;;;;;5034857;28;20172;-77
2021/03/26 01:20:01;;;;;;;29.83;13.63;;;4.90;51.00;;;;;;5033639;28;20072;-77
2021/03/26 01:22:26;;;;;;;27.63;13.68;;;4.80;50.90;;;;;;5034342;28;20045;-77
2021/03/26 01:24:52;;;;;;;28.27;14.25;;;4.80;50.90;;;;;;5034798;28;20089;-77
2021/03/26 01:27:18;;;;;;;23.17;13.18;;;4.80;50.90;;;;;;5034975;28;20383;-77
2021/03/26 01:29:44;;;;;;;23.00;12.85;;;4.80;50.90;;;;;;5034910;28;20382;-77
2021/03/26 01:32:10;;;;;;;27.15;13.02;;;4.80;50.90;;;;;;5034668;28;20108;-77
2021/03/26 01:34:35;;;;;;;25.55;12.60;;;4.80;50.80;;;;;;5034231;28;20026;-77
2021/03/26 01:37:01;;;;;;;24.83;13.52;;;4.80;50.80;;;;;;5034007;28;20037;-77
2021/03/26 01:39:27;;;;;;;28.58;13.38;;;4.70;50.70;;;;;;5033892;28;20025;-77
2021/03/26 01:41:53;;;;;;;28.27;13.75;;;4.80;50.80;;;;;;5032851;28;20044;-77
2021/03/26 01:44:23;;;;;;;34.67;14.00;;;4.80;50.80;;;;;;5034148;28;20455;-76
2021/03/26 01:46:49;;;;;;;30.15;14.90;;;4.70;50.70;;;;;;5033999;28;20037;-77
2021/03/26 01:49:15;;;;;;;24.77;13.23;;;4.70;50.70;;;;;;5033891;28;20052;-77
2021/03/26 01:51:47;;;;;;;28.52;14.93;;;4.70;50.70;;;;;;5034477;28;20045;-76
2021/03/26 01:54:16;;;;;;;23.45;13.73;;;4.70;50.70;;;;;;5034463;28;20083;-77
2021/03/26 01:56:42;;;;;;;28.00;14.07;;;4.70;50.80;;;;;;5033923;28;20035;-77
2021/03/26 01:59:09;;;;;;;27.83;13.98;;;4.70;50.80;;;;;;5033660;28;20036;-77
2021/03/26 02:01:44;;;;;;;28.40;15.32;;;4.70;50.80;;;;;;5034398;28;20421;-78
2021/03/26 02:04:25;;;;;;;30.40;14.98;;;4.70;50.90;;;;;;5037048;28;20022;-78
2021/03/26 02:06:53;;;;;;;31.20;15.52;;;4.70;51.00;;;;;;5037739;28;20026;-77
2021/03/26 02:09:27;;;;;;;31.75;14.88;;;4.60;51.00;;;;;;5037743;28;20033;-77
2021/03/26 02:12:00;;;;;;;26.23;14.95;;;4.60;51.00;;;;;;5037039;28;20033;-77
2021/03/26 02:14:36;;;;;;;27.02;13.90;;;4.60;51.00;;;;;;5036825;28;20041;-77
2021/03/26 02:17:03;;;;;;;27.83;14.30;;;4.60;51.00;;;;;;5036835;28;20026;-77
2021/03/26 02:19:43;;;;;;;28.05;15.27;;;4.60;51.00;;;;;;5036647;28;20033;-77
2021/03/26 02:22:12;;;;;;;26.60;15.75;;;4.60;51.00;;;;;;5036450;28;20034;-76
2021/03/26 02:24:38;;;;;;;24.33;13.63;;;4.60;51.00;;;;;;5036817;28;20409;-77
2021/03/26 02:27:12;;;;;;;28.90;13.82;;;4.60;51.00;;;;;;5036587;28;20022;-77
2021/03/26 02:29:38;;;;;;;27.02;13.65;;;4.60;50.90;;;;;;5036953;28;20038;-77
2021/03/26 02:32:19;;;;;;;28.23;13.63;;;4.60;50.80;;;;;;5036682;28;20087;-77
2021/03/26 02:35:09;;;;;;;25.77;14.38;;;4.60;50.60;;;;;;5036826;28;20108;-77
2021/03/26 02:37:38;;;;;;;26.90;13.52;;;4.60;50.60;;;;;;5036872;28;20423;-77
2021/03/26 02:40:07;;;;;;;23.63;13.07;;;4.60;50.50;;;;;;5036481;28;20025;-77
2021/03/26 02:42:34;;;;;;;23.52;13.13;;;4.60;50.50;;;;;;5036409;28;20038;-78
2021/03/26 02:45:35;;;;;;;21.30;13.00;;;4.60;50.50;;;;;;5036304;28;20387;-76
2021/03/26 02:48:09;;;;;;;23.90;13.02;;;4.60;50.50;;;;;;5007093;28;20428;-77
2021/03/26 02:50:56;;;;;;;30.45;14.52;;;4.60;50.50;;;;;;5016474;28;20041;-77
2021/03/26 02:53:42;;;;;;;28.67;14.70;;;4.60;50.50;;;;;;5015813;28;20383;-77
2021/03/26 02:56:18;;;;;;;26.92;13.93;;;4.60;50.60;;;;;;5015546;28;20037;-77
2021/03/26 02:58:53;;;;;;;30.73;16.35;;;4.50;50.60;;;;;;5015423;28;20029;-76
2021/03/26 03:01:24;;;;;;;;;;;4.50;50.70;;;;;;5015896;28;20052;-77
2021/03/26 03:03:54;;;;;;;33.72;14.77;;;4.50;50.70;;;;;;5015413;28;19905;-77
2021/03/26 03:07:01;;;;;;;25.88;14.02;;;4.50;50.70;;;;;;5015641;28;20034;-77
2021/03/26 03:09:30;;;;;;;28.65;15.25;;;4.40;50.80;;;;;;5012827;28;20037;-78
2021/03/26 03:12:01;;;;;;;28.95;14.63;;;4.40;50.80;;;;;;5016190;28;20088;-76
2021/03/26 03:14:32;;;;;;;28.02;15.10;;;4.40;51.00;;;;;;5014853;28;20030;-79
2021/03/26 03:17:04;;;;;;;27.42;14.80;;;4.30;51.00;;;;;;5019299;28;20025;-77
2021/03/26 03:19:35;;;;;;;32.70;15.20;;;4.30;51.70;;;;;;5017109;28;20179;-78
2021/03/26 03:22:13;;;;;;;32.08;14.77;;;4.30;51.10;;;;;;5015411;28;20033;-77
2021/03/26 03:24:45;;;;;;;32.33;16.25;;;4.30;51.10;;;;;;5015363;28;20034;-77
2021/03/26 03:27:17;;;;;;;29.48;15.60;;;4.30;51.20;;;;;;5015013;28;20034;-77
2021/03/26 03:29:49;;;;;;;27.50;15.27;;;4.20;51.20;;;;;;5016609;28;20053;-77
2021/03/26 03:32:33;;;;;;;29.77;15.07;;;4.20;51.40;;;;;;5014513;28;20120;-77
2021/03/26 03:35:26;;;;;;;38.17;16.25;;;4.20;51.60;;;;;;5016170;28;20032;-77
2021/03/26 03:38:22;;;;;;;31.23;15.98;;;4.10;51.50;;;;;;5016068;28;20468;-77
2021/03/26 03:41:01;;;;;;;36.78;16.98;;;4.10;51.70;;;;;;5014571;28;20084;-77
2021/03/26 03:43:47;;;;;;;32.30;16.15;;;4.10;51.70;;;;;;5018066;28;20036;-77
2021/03/26 03:46:21;;;;;;;36.58;17.33;;;4.10;51.80;;;;;;5023416;28;20029;-78
2021/03/26 03:48:53;;;;;;;33.42;17.33;;;4.00;51.80;;;;;;5024527;28;20037;-77
2021/03/26 03:51:23;;;;;;;40.60;18.25;;;4.00;52.00;;;;;;5021470;28;20121;-78
2021/03/26 03:54:04;;;;;;;30.02;16.33;;;4.00;52.00;;;;;;5022600;28;20530;-77
2021/03/26 03:56:39;;;;;;;33.60;17.33;;;4.00;52.10;;;;;;5024641;28;20041;-76
2021/03/26 03:59:15;;;;;;;28.08;15.77;;;4.00;52.10;;;;;;5023279;28;20026;-78
2021/03/26 04:01:55;;;;;;;31.33;17.33;;;4.00;52.20;;;;;;5020231;28;20094;-77
2021/03/26 04:04:34;;;;;;;32.28;17.50;;;4.00;52.10;;;;;;5019731;28;20491;-77
2021/03/26 04:07:08;;;;;;;30.90;15.25;;;4.10;52.10;;;;;;5018524;28;20030;-77
2021/03/26 04:09:40;;;;;;;27.95;15.52;;;4.10;52.00;;;;;;5024526;28;20021;-77
2021/03/26 04:12:22;;;;;;;32.80;16.75;;;4.10;52.00;;;;;;5023715;28;20105;-77
2021/03/26 04:14:51;;;;;;;28.02;15.50;;;4.20;52.00;;;;;;5023213;28;20419;-76
2021/03/26 04:17:28;;;;;;;33.67;16.88;;;4.20;51.90;;;;;;5021194;28;20097;-76
2021/03/26 04:19:58;;;;;;;28.10;15.73;;;4.20;51.80;;;;;;5028134;28;20084;-77
2021/03/26 04:22:30;;;;;;;33.30;16.80;;;4.30;51.90;;;;;;5024445;28;20032;-78
2021/03/26 04:25:08;;;;;;;32.55;16.50;;;4.30;51.80;;;;;;5025680;28;20079;-77
2021/03/26 04:27:35;;;;;;;34.95;16.77;;;4.40;51.70;;;;;;5006717;28;20085;-78
2021/03/26 04:30:21;;;;;;;32.15;16.23;;;4.50;51.70;;;;;;5034889;28;20026;-78
2021/03/26 04:32:48;;;;;;;31.85;16.65;;;4.50;51.50;;;;;;5003515;28;20058;-77
2021/03/26 04:35:16;;;;;;;42.22;17.27;;;4.60;51.40;;;;;;5003032;28;20018;-78
2021/03/26 04:37:51;;;;;;;32.08;17.00;;;4.70;51.20;;;;;;5003192;28;20019;-78
2021/03/26 04:40:33;;;;;;;32.03;16.48;;;4.70;51.10;;;;;;5002684;28;20018;-78
2021/03/26 04:43:02;;;;;;;35.45;16.98;;;4.80;50.90;;;;;;5000952;28;20464;-78
2021/03/26 04:45:58;;;;;;;35.08;18.08;;;4.90;50.80;;;;;;5003501;28;20026;-78
2021/03/26 04:48:43;;;;;;;32.15;16.67;;;4.90;50.60;;;;;;5004660;28;20018;-78
2021/03/26 04:51:18;;;;;;;32.58;16.88;;;5.00;50.40;;;;;;5014938;28;20030;-78
2021/03/26 04:54:19;;;;;;;37.28;16.95;;;5.10;50.40;;;;;;5013771;28;20022;-78
2021/03/26 04:56:50;;;;;;;30.48;17.65;;;5.10;50.20;;;;;;5013839;28;20068;-78
2021/03/26 04:59:20;;;;;;;33.90;17.38;;;5.20;50.10;;;;;;5013608;28;20030;-77
2021/03/26 05:01:49;;;;;;;37.92;18.55;;;5.30;50.00;;;;;;5012053;28;20380;-78
2021/03/26 05:04:22;;;;;;;30.88;17.10;;;5.30;49.80;;;;;;5016370;28;20022;-78
2021/03/26 05:07:05;;;;;;;31.27;16.83;;;5.40;49.70;;;;;;5021486;28;20026;-78
2021/03/26 05:09:37;;;;;;;32.25;17.65;;;5.40;49.50;;;;;;5022380;28;20037;-80
2021/03/26 05:12:09;;;;;;;30.60;16.85;;;5.50;49.40;;;;;;5021184;28;20105;-78
2021/03/26 05:14:40;;;;;;;36.65;18.73;;;5.50;49.30;;;;;;5027763;28;20017;-77
2021/03/26 05:17:40;;;;;;;38.95;19.08;;;5.60;49.30;;;;;;5033287;28;20022;-78
2021/03/26 05:20:37;;;;;;;40.03;20.67;;;5.60;49.10;;;;;;5033714;28;20480;-77
2021/03/26 05:23:12;;;;;;;46.72;22.88;;;5.70;49.10;;;;;;5033163;28;20545;-77
2021/03/26 05:25:44;;;;;;;47.17;22.50;;;5.70;48.90;;;;;;5033449;28;20096;-78
2021/03/26 05:28:32;;;;;;;47.00;23.80;;;5.70;48.90;;;;;;5032728;28;20049;-78
2021/03/26 05:31:10;;;;;;;42.78;22.30;;;5.80;48.90;;;;;;5032423;28;20029;-77
2021/03/26 05:33:42;;;;;;;39.10;20.55;;;5.80;48.80;;;;;;5033981;28;20029;-78
2021/03/26 05:36:40;;;;;;;39.83;20.48;;;5.90;48.80;;;;;;5034041;28;20057;-77
2021/03/26 05:39:11;;;;;;;31.70;18.40;;;6.00;48.80;;;;;;5033876;28;20038;-78
2021/03/26 05:41:56;;;;;;;39.30;18.48;;;6.00;48.70;;;;;;5036454;28;20036;-77
2021/03/26 05:45:06;;;;;;;40.78;18.17;;;6.00;48.50;;;;;;5037527;28;20060;-78
2021/03/26 05:47:38;;;;;;;32.33;17.48;;;6.10;48.40;;;;;;5036521;28;20040;-77
2021/03/26 05:50:34;;;;;;;37.92;18.55;;;6.20;48.40;;;;;;5037171;28;20028;-79
2021/03/26 05:53:25;;;;;;;35.92;17.77;;;6.30;48.30;;;;;;5035273;28;20025;-78
2021/03/26 05:55:58;;;;;;;31.80;16.17;;;6.40;48.20;;;;;;5036415;28;20026;-78
2021/03/26 05:58:44;;;;;;;29.98;16.95;;;6.40;48.20;;;;;;5034760;28;20492;-77
2021/03/26 06:01:34;;;;;;;35.67;18.10;;;6.40;47.90;;;;;;4995583;28;20132;-77
2021/03/26 06:04:30;;;;;;;38.40;18.05;;;6.60;47.90;;;;;;4996613;28;20066;-79
2021/03/26 06:07:14;;;;;;;35.65;17.60;;;6.70;47.80;;;;;;5000128;28;20041;-77
2021/03/26 06:09:58;;;;;;;31.05;17.35;;;6.70;47.60;;;;;;5025381;28;20022;-77
2021/03/26 06:12:42;;;;;;;28.13;16.52;;;6.80;47.50;;;;;;5025981;28;20034;-78
2021/03/26 06:15:23;;;;;;;33.85;16.52;;;6.90;47.50;;;;;;5026629;28;20053;-77
2021/03/26 06:18:04;;;;;;;31.25;18.05;;;7.00;47.30;;;;;;5016159;28;20391;-77
2021/03/26 06:20:52;;;;;;;36.13;17.48;;;7.10;47.20;;;;;;5021130;28;20056;-77
2021/03/26 06:23:58;;;;;;;34.15;17.60;;;7.10;47.10;;;;;;4996410;28;20030;-77
2021/03/26 06:26:42;;;;;;;;;;;7.20;47.00;;;;;;4996782;28;20101;-78
2021/03/26 06:29:32;;;;;;;34.38;17.95;;;7.30;47.20;;;;;;4996436;28;19996;-78
2021/03/26 06:32:31;;;;;;;36.58;17.70;;;7.40;46.80;;;;;;5010456;28;20033;-77
2021/03/26 06:35:34;;;;;;;33.70;18.27;;;7.50;46.70;;;;;;5034123;28;20025;-77
2021/03/26 06:38:21;;;;;;;33.45;18.02;;;7.60;46.70;;;;;;5035995;28;20029;-77
2021/03/26 06:40:53;;;;;;;33.30;17.35;;;7.70;46.60;;;;;;5027314;28;20419;-77
2021/03/26 06:43:45;;;;;;;32.78;18.00;;;7.80;46.50;;;;;;5025030;28;20038;-78
2021/03/26 06:46:39;;;;;;;40.45;20.17;;;7.80;46.40;;;;;;5026208;28;20028;-78
2021/03/26 06:49:08;;;;;;;41.30;20.42;;;7.90;46.30;;;;;;5027891;28;20419;-78
2021/03/26 06:51:59;;;;;;;40.97;20.95;;;8.00;46.30;;;;;;5035260;28;20030;-72
2021/03/26 06:54:35;;;;;;;36.85;17.85;;;8.10;46.10;;;;;;5034944;28;20029;-71
2021/03/26 06:57:08;;;;;;;32.72;18.63;;;8.20;46.10;;;;;;5032906;28;20022;-71
2021/03/26 06:59:39;;;;;;;30.63;18.15;;;8.30;45.90;;;;;;5015171;28;20052;-72
2021/03/26 07:02:33;;;;;;;31.40;18.33;;;8.40;45.80;;;;;;5017946;28;20072;-71
2021/03/26 07:05:41;;;;;;;32.85;17.10;;;8.40;45.40;;;;;;5035063;28;20354;-70
2021/03/26 07:08:34;;;;;;;34.67;17.00;;;8.60;45.40;;;;;;5034642;28;20498;-70
2021/03/26 07:11:24;;;;;;;30.98;16.98;;;8.70;45.40;;;;;;5028907;28;20030;-71
2021/03/26 07:14:16;;;;;;;33.78;17.73;;;8.80;45.40;;;;;;5020663;28;20029;-72
2021/03/26 07:16:50;;;;;;;32.83;17.27;;;8.90;45.20;;;;;;5020821;28;20121;-73
2021/03/26 07:19:35;;;;;;;32.75;16.88;;;9.10;45.20;;;;;;5027231;28;20086;-70
2021/03/26 07:22:34;;;;;;;31.33;16.95;;;9.10;44.90;;;;;;5022598;28;20053;-72
2021/03/26 07:25:09;;;;;;;29.67;17.48;;;9.20;44.70;;;;;;5022244;28;20091;-71
2021/03/26 07:27:37;;;;;;;;;;;9.40;44.60;;;;;;5021442;28;20041;-70
2021/03/26 07:30:11;;;;;;;31.95;16.38;;;9.50;45.40;;;;;;5023462;28;19955;-71
2021/03/26 07:32:59;;;;;;;28.17;17.17;;;9.60;44.30;;;;;;5014635;28;20030;-70
2021/03/26 07:35:30;;;;;;;27.42;15.25;;;9.80;44.10;;;;;;5020880;28;20036;-71
2021/03/26 07:38:27;;;;;;;26.23;15.90;;;9.90;43.90;;;;;;5022721;28;20029;-70
2021/03/26 07:41:03;;;;;;;27.50;16.83;;;10.10;43.60;;;;;;5023421;28;20040;-71
2021/03/26 07:44:01;;;;;;;40.55;17.52;;;10.30;43.40;;;;;;5023763;28;20387;-71
2021/03/26 07:46:38;;;;;;;30.35;16.17;;;10.50;43.20;;;;;;5021986;28;20108;-71
2021/03/26 07:49:10;;;;;;;29.02;16.73;;;10.70;43.00;;;;;;5021007;28;20460;-70
2021/03/26 07:51:41;;;;;;;31.88;15.85;;;11.00;42.70;;;;;;5022405;28;20358;-71
2021/03/26 07:54:19;;;;;;;29.85;16.42;;;11.20;42.20;;;;;;5023693;28;20024;-70
2021/03/26 07:56:55;;;;;;;30.23;15.38;;;11.40;41.80;;;;;;5021112;28;20089;-71
2021/03/26 08:00:02;;;;;;;23.35;14.80;;;11.80;41.50;;;;;;5019671;28;20115;-71
2021/03/26 08:02:49;;;;;;;25.35;13.93;;;12.10;40.80;;;;;;5021480;28;20050;-71
2021/03/26 08:05:36;;;;;;;28.50;14.80;;;12.40;40.30;;;;;;5018319;28;20139;-72
2021/03/26 08:08:33;;;;;;;25.60;14.55;;;12.70;40.00;;;;;;5019994;28;20037;-72
2021/03/26 08:11:29;;;;;;;24.90;14.20;;;13.00;39.60;;;;;;4987298;28;20397;-71
2021/03/26 08:14:33;;;;;;;24.55;14.50;;;13.30;38.90;;;;;;5023263;28;20068;-71
2021/03/26 08:17:02;;;;;;;24.83;13.88;;;13.60;38.60;;;;;;5012869;28;20081;-71
2021/03/26 08:19:31;;;;;;;25.65;14.45;;;14.00;38.30;;;;;;5023724;28;20049;-70
2021/03/26 08:22:22;;;;;;;22.95;13.80;;;14.30;37.70;;;;;;5023134;28;20034;-69
2021/03/26 08:25:06;;;;;;;28.92;13.68;;;14.60;37.20;;;;;;5021431;28;20052;-70
2021/03/26 08:27:37;;;;;;;21.27;13.18;;;15.10;37.20;;;;;;5022447;28;20076;-70
2021/03/26 08:30:11;;;;;;;22.80;14.02;;;15.70;36.90;;;;;;5019822;28;20112;-70
2021/03/26 08:33:04;;;;;;;23.95;12.60;;;16.40;36.60;;;;;;5021956;28;20053;-71
2021/03/26 08:35:32;;;;;;;27.90;12.85;;;17.30;36.10;;;;;;5021465;28;20041;-71
2021/03/26 08:38:07;;;;;;;20.08;12.88;;;18.30;36.10;;;;;;5023918;28;20033;-71
2021/03/26 08:41:01;;;;;;;18.08;11.68;;;19.30;34.70;;;;;;5023392;28;20029;-70
2021/03/26 08:43:30;;;;;;;19.47;13.07;;;20.40;33.60;;;;;;5017444;28;20037;-70
2021/03/26 08:46:22;;;;;;;17.98;11.63;;;21.40;33.50;;;;;;5018644;28;20038;-71
2021/03/26 08:48:53;;;;;;;19.80;12.50;;;22.40;31.80;;;;;;5008958;28;20045;-72
2021/03/26 08:51:57;;;;;;;19.73;12.23;;;23.30;30.90;;;;;;5013451;28;20034;-71
2021/03/26 08:54:41;;;;;;;15.27;11.48;;;24.20;29.90;;;;;;5013045;28;20113;-70
2021/03/26 08:57:27;;;;;;;18.15;11.50;;;25.10;29.90;;;;;;5021587;28;20025;-70
2021/03/26 09:00:02;;;;;;;20.25;11.25;;;25.80;29.40;;;;;;5031988;28;20067;-71
2021/03/26 09:02:48;;;;;;;15.50;9.95;;;26.50;28.80;;;;;;5032884;28;20057;-71
2021/03/26 09:05:26;;;;;;;20.38;11.05;;;26.90;28.10;;;;;;5021365;28;20033;-72
2021/03/26 09:08:00;;;;;;;15.70;10.75;;;27.40;27.90;;;;;;5027687;28;20034;-71
2021/03/26 09:10:47;;;;;;;16.85;11.15;;;27.90;27.60;;;;;;5032821;28;20041;-71
2021/03/26 09:13:34;;;;;;;14.75;9.80;;;28.30;27.20;;;;;;5036178;28;20032;-70
2021/03/26 09:16:07;;;;;;;13.43;10.07;;;28.80;26.80;;;;;;5036742;28;20064;-70
2021/03/26 09:18:52;;;;;;;14.20;9.43;;;29.10;26.60;;;;;;4996381;28;20487;-71
2021/03/26 09:21:42;;;;;;;14.13;9.48;;;29.30;26.30;;;;;;4997298;28;20035;-71
2021/03/26 09:24:50;;;;;;;12.68;9.85;;;29.60;26.20;;;;;;4996919;28;20519;-71
2021/03/26 09:27:31;;;;;;;15.30;9.68;;;30.00;26.00;;;;;;4995673;28;20389;-71
2021/03/26 09:30:07;;;;;;;11.82;8.85;;;30.40;25.90;;;;;;5027374;28;20084;-71
2021/03/26 09:32:45;;;;;;;11.50;8.60;;;30.70;25.90;;;;;;5036563;28;20372;-71
2021/03/26 09:35:25;;;;;;;10.35;8.55;;;30.90;26.10;;;;;;5036409;28;20025;-70
2021/03/26 09:38:01;;;;;;;11.65;8.15;;;31.00;25.30;;;;;;5036313;28;20048;-71
2021/03/26 09:40:48;;;;;;;11.43;7.75;;;31.20;25.30;;;;;;5034810;28;20025;-71
2021/03/26 09:43:18;;;;;;;15.38;7.80;;;31.50;25.20;;;;;;5036210;28;20040;-70
2021/03/26 09:45:59;;;;;;;11.52;8.40;;;31.80;25.40;;;;;;5035122;28;20034;-71
2021/03/26 09:49:02;;;;;;;12.98;8.10;;;32.00;25.00;;;;;;5035996;28;20475;-70
2021/03/26 09:51:34;;;;;;;13.02;8.65;;;32.20;25.00;;;;;;5032274;28;20152;-71
2021/03/26 09:54:20;;;;;;;11.55;8.20;;;32.20;24.90;;;;;;5016269;28;20528;-70
2021/03/26 09:57:11;;;;;;;8.85;6.15;;;32.30;24.90;;;;;;5012114;28;20462;-71
2021/03/26 10:00:07;;;;;;;11.88;6.35;;;32.30;24.90;;;;;;5015935;28;20451;-70
2021/03/26 10:03:07;;;;;;;9.15;6.43;;;32.20;24.80;;;;;;5024906;28;20045;-71
2021/03/26 10:05:51;;;;;;;13.32;6.70;;;32.40;25.00;;;;;;5033664;28;20059;-70
2021/03/26 10:11:22;;;;;;;9.13;5.40;;;33.00;24.80;;;;;;5035367;28;20099;-72
2021/03/26 10:14:27;;;;;;;6.93;5.60;;;33.30;24.60;;;;;;5016395;28;20443;-71
2021/03/26 10:16:59;;;;;;;11.48;6.32;;;33.40;24.60;;;;;;5009774;28;20125;-71
2021/03/26 10:19:32;;;;;;;7.18;4.10;;;33.50;24.70;;;;;;5016289;28;20033;-71
2021/03/26 10:21:59;;;;;;;7.32;5.18;;;33.80;24.30;;;;;;5024773;28;20037;-72
2021/03/26 10:24:37;;;;;;;7.03;4.15;;;33.90;24.40;;;;;;5026054;28;20021;-70
2021/03/26 10:27:20;;;;;;;5.63;3.92;;;34.20;24.20;;;;;;5026059;28;20034;-73
2021/03/26 10:30:02;;;;;;;10.57;8.32;;;34.50;24.00;;;;;;5026333;28;20100;-71
2021/03/26 10:32:37;;;;;;;6.10;5.50;;;34.60;23.90;;;;;;5025080;28;20030;-72
2021/03/26 10:35:20;;;;;;;6.65;5.45;;;34.80;23.80;;;;;;5022767;28;20025;-72
2021/03/26 10:37:58;;;;;;;5.30;4.20;;;34.90;24.20;;;;;;5025640;28;20045;-71
2021/03/26 10:40:34;;;;;;;6.47;3.85;;;35.20;23.90;;;;;;5025674;28;20112;-71
2021/03/26 10:43:15;;;;;;;5.63;3.42;;;35.40;23.80;;;;;;5025631;28;20030;-71
2021/03/26 10:46:02;;;;;;;4.07;3.03;;;35.40;23.30;;;;;;5024581;28;20353;-71
2021/03/26 10:48:51;;;;;;;6.57;3.47;;;35.30;23.30;;;;;;5025763;28;20108;-71
2021/03/26 10:51:29;;;;;;;4.72;3.20;;;35.30;23.30;;;;;;5057733;28;20454;-71
2021/03/26 10:54:03;;;;;;;5.57;3.65;;;35.40;23.30;;;;;;5034975;28;20026;-71
2021/03/26 10:57:11;;;;;;;5.40;4.88;;;35.60;23.20;;;;;;5017299;28;20451;-72
2021/03/26 10:59:44;;;;;;;3.95;3.55;;;35.50;23.20;;;;;;5029065;28;20133;-71
2021/03/26 11:02:24;;;;;;;5.63;3.63;;;35.70;23.40;;;;;;5015101;28;20054;-72
2021/03/26 11:05:02;;;;;;;8.70;4.68;;;35.80;23.30;;;;;;5014904;28;20267;-72
2021/03/26 11:07:36;;;;;;;6.35;5.70;;;36.10;23.30;;;;;;5015890;28;20030;-71
2021/03/26 11:10:06;;;;;;;7.20;4.65;;;36.20;23.10;;;;;;5034270;28;20026;-72
2021/03/26 11:12:45;;;;;;;5.60;4.05;;;36.20;23.00;;;;;;5034492;28;20040;-71
2021/03/26 11:15:25;;;;;;;6.13;4.07;;;36.30;22.90;;;;;;5026012;28;20033;-72
2021/03/26 11:18:12;;;;;;;8.75;4.57;;;36.40;22.90;;;;;;5025524;28;20090;-71
2021/03/26 11:20:49;;;;;;;6.15;4.55;;;36.60;22.90;;;;;;5021850;28;20464;-71
2021/03/26 11:23:25;;;;;;;6.57;5.80;;;36.90;22.80;;;;;;5019977;28;20030;-70
2021/03/26 11:26:06;;;;;;;9.93;5.28;;;36.90;22.80;;;;;;5022206;28;20025;-71
2021/03/26 11:28:47;;;;;;;9.98;4.68;;;37.00;22.70;;;;;;5008543;28;20030;-71
2021/03/26 11:31:29;;;;;;;8.48;4.10;;;37.10;22.60;;;;;;5008731;28;20101;-70
2021/03/26 11:34:09;;;;;;;5.60;5.10;;;37.20;22.60;;;;;;5003560;28;20439;-71
2021/03/26 11:36:47;;;;;;;9.48;7.82;;;37.30;22.60;;;;;;5024711;28;20055;-71
2021/03/26 11:39:18;;;;;;;6.63;4.55;;;37.20;22.50;;;;;;5033614;28;20468;-71
2021/03/26 11:42:16;;;;;;;7.45;4.00;;;37.10;22.50;;;;;;5027751;28;20107;-71
2021/03/26 11:44:59;;;;;;;4.80;3.33;;;36.90;22.40;;;;;;5000866;28;20052;-71
2021/03/26 11:47:30;;;;;;;5.63;3.95;;;36.80;22.40;;;;;;5017069;28;20502;-71
2021/03/26 11:50:16;;;;;;;5.10;3.47;;;36.60;22.40;;;;;;4994532;28;20030;-71
2021/03/26 11:53:02;;;;;;;6.93;3.97;;;36.20;22.40;;;;;;5020113;28;20032;-71
2021/03/26 11:55:34;;;;;;;9.10;4.38;;;35.90;22.60;;;;;;5023370;28;20068;-71
2021/03/26 11:58:20;;;;;;;6.20;5.00;;;35.70;22.60;;;;;;5022586;28;20168;-71
2021/03/26 12:00:57;;;;;;;13.18;5.07;;;35.90;22.70;;;;;;5021383;28;20040;-72
2021/03/26 12:03:59;;;;;;;6.10;3.97;;;36.10;22.60;;;;;;5023300;28;20034;-75
2021/03/26 12:07:08;;;;;;;5.88;3.88;;;36.20;22.40;;;;;;5022779;28;20037;-72
2021/03/26 12:09:51;;;;;;;6.78;3.60;;;36.30;22.50;;;;;;5018486;28;20080;-73
2021/03/26 12:12:38;;;;;;;7.32;4.40;;;36.30;22.40;;;;;;5023041;28;20576;-73
2021/03/26 12:15:11;;;;;;;7.55;3.90;;;36.20;22.30;;;;;;5022178;28;20882;-74
2021/03/26 12:17:43;;;;;;;6.18;4.80;;;36.00;22.20;;;;;;5020761;28;20030;-71
2021/03/26 12:20:22;;;;;;;7.60;6.90;;;35.70;22.20;;;;;;5020882;28;20092;-71
2021/03/26 12:23:19;;;;;;;8.43;7.55;;;35.40;22.20;;;;;;5021204;28;20022;-73
2021/03/26 12:26:14;;;;;;;11.20;7.47;;;35.10;22.30;;;;;;5022139;28;20116;-72
2021/03/26 12:28:55;;;;;;;13.20;7.78;;;35.00;22.30;;;;;;5011890;28;20043;-71
2021/03/26 12:31:48;;;;;;;11.32;6.32;;;35.00;22.40;;;;;;5021309;28;20030;-71
2021/03/26 12:34:21;;;;;;;10.90;4.55;;;35.10;22.40;;;;;;5019194;28;20060;-73
2021/03/26 12:37:12;;;;;;;7.38;4.85;;;35.20;22.40;;;;;;5020964;28;20499;-72
2021/03/26 12:39:41;;;;;;;7.57;6.28;;;35.30;22.50;;;;;;5020099;28;20037;-71
2021/03/26 12:42:42;;;;;;;9.40;5.15;;;35.30;22.50;;;;;;5020744;28;20029;-72
2021/03/26 12:45:11;;;;;;;8.63;4.70;;;35.20;22.60;;;;;;5021987;28;20498;-71
2021/03/26 12:47:54;;;;;;;6.65;4.00;;;35.30;22.60;;;;;;5021815;28;20105;-71
2021/03/26 12:50:48;;;;;;;7.28;4.40;;;35.40;22.60;;;;;;5020734;28;20071;-71
2021/03/26 12:53:42;;;;;;;9.15;5.68;;;35.70;22.70;;;;;;5022744;28;20108;-72
2021/03/26 12:56:20;;;;;;;7.55;4.88;;;35.90;22.60;;;;;;5022134;28;20503;-71
2021/03/26 12:59:13;;;;;;;5.22;4.13;;;36.00;22.60;;;;;;5023041;28;20030;-71
2021/03/26 13:01:53;;;;;;;;;;;35.80;22.50;;;;;;5020467;28;20092;-71
2021/03/26 13:04:40;;;;;;;7.10;4.00;;;35.80;22.90;;;;;;5021719;28;20020;-71
2021/03/26 13:07:30;;;;;;;11.80;5.10;;;35.90;22.70;;;;;;5024738;28;20029;-72
2021/03/26 13:10:19;;;;;;;7.75;5.10;;;35.90;22.70;;;;;;5031601;28;20033;-71
2021/03/26 13:12:47;;;;;;;8.02;5.22;;;35.80;22.70;;;;;;5022466;28;20480;-70
2021/03/26 13:15:23;;;;;;;9.13;5.22;;;35.70;22.80;;;;;;5024364;28;20429;-70
2021/03/26 13:18:05;;;;;;;7.28;5.32;;;35.40;22.70;;;;;;5022518;28;20113;-70
2021/03/26 13:20:48;;;;;;;8.75;5.47;;;35.20;22.70;;;;;;5020731;28;20498;-71
2021/03/26 13:23:19;;;;;;;8.33;6.23;;;35.10;22.70;;;;;;5022506;28;20048;-73
2021/03/26 13:26:01;;;;;;;8.20;6.45;;;35.00;22.60;;;;;;5022320;28;20243;-70
2021/03/26 13:28:28;;;;;;;7.00;5.60;;;35.00;22.60;;;;;;5020713;28;20022;-72
2021/03/26 13:31:21;;;;;;;6.50;5.22;;;35.00;22.60;;;;;;5018628;28;20026;-73
2021/03/26 13:34:07;;;;;;;8.32;6.20;;;35.00;22.40;;;;;;5014075;28;20057;-72
2021/03/26 13:37:11;;;;;;;6.18;5.25;;;35.00;22.40;;;;;;5023303;28;20479;-71
2021/03/26 13:39:50;;;;;;;9.43;6.55;;;34.80;22.40;;;;;;5010720;28;20503;-71
2021/03/26 13:42:31;;;;;;;10.43;8.48;;;34.70;22.40;;;;;;5021456;28;20438;-71